sensor_id;sensor_type;location;lat;lon;timestamp;P1;durP1;ratioP1;P2;durP2;ratioP2
57800;SDS011;43627;42.728;23.256;2022-07-23T00:00:17;15.50;;;6.45;;
57800;SDS011;43627;42.728;23.256;2022-07-23T00:02:45;14.32;;;5.90;;
57800;SDS011;43627;42.728;23.256;2022-07-23T00:05:12;13.20;;;6.03;;
57800;SDS011;43627;42.728;23.256;2022-07-23T00:07:38;13.55;;;6.63;;
57800;SDS011;43627;42.728;23.256;2022-07-23T00:10:06;11.77;;;5.75;;
57800;SDS011;43627;42.728;23.256;2022-07-23T00:12:34;12.00;;;6.10;;
57800;SDS011;43627;42.728;23.256;2022-07-23T00:15:00;12.55;;;5.55;;
57800;SDS011;43627;42.728;23.256;2022-07-23T00:17:28;9.15;;;5.30;;
57800;SDS011;43627;42.728;23.256;2022-07-23T00:19:55;11.38;;;5.45;;
57800;SDS011;43627;42.728;23.256;2022-07-23T00:22:22;14.02;;;8.82;;
57800;SDS011;43627;42.728;23.256;2022-07-23T00:24:49;9.30;;;5.20;;
57800;SDS011;43627;42.728;23.256;2022-07-23T00:27:36;15.73;;;8.82;;
57800;SDS011;43627;42.728;23.256;2022-07-23T00:30:02;12.00;;;5.43;;
57800;SDS011;43627;42.728;23.256;2022-07-23T00:32:29;11.77;;;5.45;;
57800;SDS011;43627;42.728;23.256;2022-07-23T00:35:16;8.68;;;5.25;;
57800;SDS011;43627;42.728;23.256;2022-07-23T00:37:46;8.50;;;5.55;;
57800;SDS011;43627;42.728;23.256;2022-07-23T00:40:13;10.75;;;5.70;;
57800;SDS011;43627;42.728;23.256;2022-07-23T00:42:40;10.18;;;5.90;;
57800;SDS011;43627;42.728;23.256;2022-07-23T00:45:07;7.10;;;4.65;;
57800;SDS011;43627;42.728;23.256;2022-07-23T00:47:34;9.60;;;5.40;;
57800;SDS011;43627;42.728;23.256;2022-07-23T00:50:02;9.65;;;5.95;;
57800;SDS011;43627;42.728;23.256;2022-07-23T00:52:30;12.65;;;6.45;;
57800;SDS011;43627;42.728;23.256;2022-07-23T00:54:58;8.13;;;5.25;;
57800;SDS011;43627;42.728;23.256;2022-07-23T00:57:25;8.57;;;5.35;;
57800;SDS011;43627;42.728;23.256;2022-07-23T00:59:54;8.70;;;5.50;;
57800;SDS011;43627;42.728;23.256;2022-07-23T01:02:21;8.75;;;4.85;;
57800;SDS011;43627;42.728;23.256;2022-07-23T01:04:48;10.00;;;5.20;;
57800;SDS011;43627;42.728;23.256;2022-07-23T01:07:15;9.68;;;5.70;;
57800;SDS011;43627;42.728;23.256;2022-07-23T01:09:43;10.00;;;5.20;;
57800;SDS011;43627;42.728;23.256;2022-07-23T01:12:11;9.70;;;5.50;;
57800;SDS011;43627;42.728;23.256;2022-07-23T01:14:38;10.00;;;5.57;;
57800;SDS011;43627;42.728;23.256;2022-07-23T01:17:05;9.93;;;5.60;;
57800;SDS011;43627;42.728;23.256;2022-07-23T01:19:32;11.98;;;5.78;;
57800;SDS011;43627;42.728;23.256;2022-07-23T01:21:58;11.00;;;5.65;;
57800;SDS011;43627;42.728;23.256;2022-07-23T01:24:28;13.15;;;6.20;;
57800;SDS011;43627;42.728;23.256;2022-07-23T01:26:55;14.30;;;5.03;;
57800;SDS011;43627;42.728;23.256;2022-07-23T01:29:22;11.85;;;5.13;;
57800;SDS011;43627;42.728;23.256;2022-07-23T01:31:49;10.45;;;5.40;;
57800;SDS011;43627;42.728;23.256;2022-07-23T01:34:15;14.02;;;5.95;;
57800;SDS011;43627;42.728;23.256;2022-07-23T01:36:42;10.38;;;5.72;;
57800;SDS011;43627;42.728;23.256;2022-07-23T01:39:09;8.82;;;5.88;;
57800;SDS011;43627;42.728;23.256;2022-07-23T01:41:36;9.40;;;5.10;;
57800;SDS011;43627;42.728;23.256;2022-07-23T01:44:03;13.82;;;6.72;;
57800;SDS011;43627;42.728;23.256;2022-07-23T01:46:30;12.95;;;6.05;;
57800;SDS011;43627;42.728;23.256;2022-07-23T01:48:56;17.35;;;7.43;;
57800;SDS011;43627;42.728;23.256;2022-07-23T01:51:24;11.50;;;6.05;;
57800;SDS011;43627;42.728;23.256;2022-07-23T01:53:50;11.13;;;6.18;;
57800;SDS011;43627;42.728;23.256;2022-07-23T01:56:17;8.23;;;5.78;;
57800;SDS011;43627;42.728;23.256;2022-07-23T01:58:47;12.35;;;6.20;;
57800;SDS011;43627;42.728;23.256;2022-07-23T02:01:14;8.43;;;5.93;;
57800;SDS011;43627;42.728;23.256;2022-07-23T02:03:41;7.13;;;5.30;;
57800;SDS011;43627;42.728;23.256;2022-07-23T02:06:08;10.55;;;5.90;;
57800;SDS011;43627;42.728;23.256;2022-07-23T02:08:34;14.20;;;5.32;;
57800;SDS011;43627;42.728;23.256;2022-07-23T02:11:01;14.50;;;6.20;;
57800;SDS011;43627;42.728;23.256;2022-07-23T02:13:28;17.73;;;6.10;;
57800;SDS011;43627;42.728;23.256;2022-07-23T02:15:59;12.45;;;6.63;;
57800;SDS011;43627;42.728;23.256;2022-07-23T02:18:26;14.25;;;6.95;;
57800;SDS011;43627;42.728;23.256;2022-07-23T02:20:53;18.30;;;6.93;;
57800;SDS011;43627;42.728;23.256;2022-07-23T02:23:19;12.35;;;5.78;;
57800;SDS011;43627;42.728;23.256;2022-07-23T02:25:46;11.57;;;6.15;;
57800;SDS011;43627;42.728;23.256;2022-07-23T02:28:14;10.27;;;6.45;;
57800;SDS011;43627;42.728;23.256;2022-07-23T02:30:41;10.02;;;5.82;;
57800;SDS011;43627;42.728;23.256;2022-07-23T02:33:08;12.52;;;6.35;;
57800;SDS011;43627;42.728;23.256;2022-07-23T02:35:34;17.40;;;5.85;;
57800;SDS011;43627;42.728;23.256;2022-07-23T02:38:01;10.88;;;6.63;;
57800;SDS011;43627;42.728;23.256;2022-07-23T02:40:28;10.65;;;6.45;;
57800;SDS011;43627;42.728;23.256;2022-07-23T02:42:54;11.43;;;7.00;;
57800;SDS011;43627;42.728;23.256;2022-07-23T02:45:21;13.18;;;6.95;;
57800;SDS011;43627;42.728;23.256;2022-07-23T02:47:48;11.82;;;6.22;;
57800;SDS011;43627;42.728;23.256;2022-07-23T02:50:14;9.88;;;6.57;;
57800;SDS011;43627;42.728;23.256;2022-07-23T02:52:41;17.63;;;6.88;;
57800;SDS011;43627;42.728;23.256;2022-07-23T02:55:08;11.50;;;5.88;;
57800;SDS011;43627;42.728;23.256;2022-07-23T02:57:35;13.82;;;6.35;;
57800;SDS011;43627;42.728;23.256;2022-07-23T03:00:02;9.45;;;6.13;;
57800;SDS011;43627;42.728;23.256;2022-07-23T03:02:30;14.50;;;7.20;;
57800;SDS011;43627;42.728;23.256;2022-07-23T03:04:57;13.88;;;6.65;;
57800;SDS011;43627;42.728;23.256;2022-07-23T03:07:23;11.90;;;7.00;;
57800;SDS011;43627;42.728;23.256;2022-07-23T03:09:50;12.73;;;6.68;;
57800;SDS011;43627;42.728;23.256;2022-07-23T03:12:17;8.88;;;6.00;;
57800;SDS011;43627;42.728;23.256;2022-07-23T03:14:44;15.77;;;7.35;;
57800;SDS011;43627;42.728;23.256;2022-07-23T03:17:10;9.20;;;6.68;;
57800;SDS011;43627;42.728;23.256;2022-07-23T03:19:37;11.65;;;6.78;;
57800;SDS011;43627;42.728;23.256;2022-07-23T03:22:04;13.63;;;6.47;;
57800;SDS011;43627;42.728;23.256;2022-07-23T03:24:32;14.90;;;10.23;;
57800;SDS011;43627;42.728;23.256;2022-07-23T03:27:17;20.05;;;11.73;;
57800;SDS011;43627;42.728;23.256;2022-07-23T03:29:44;23.33;;;12.43;;
57800;SDS011;43627;42.728;23.256;2022-07-23T03:32:11;19.98;;;12.52;;
57800;SDS011;43627;42.728;23.256;2022-07-23T03:34:38;17.23;;;11.98;;
57800;SDS011;43627;42.728;23.256;2022-07-23T03:37:05;20.33;;;10.52;;
57800;SDS011;43627;42.728;23.256;2022-07-23T03:39:32;16.63;;;9.30;;
57800;SDS011;43627;42.728;23.256;2022-07-23T03:41:59;15.90;;;9.63;;
57800;SDS011;43627;42.728;23.256;2022-07-23T03:44:26;17.30;;;8.63;;
57800;SDS011;43627;42.728;23.256;2022-07-23T03:46:52;12.75;;;7.68;;
57800;SDS011;43627;42.728;23.256;2022-07-23T03:49:19;10.13;;;6.38;;
57800;SDS011;43627;42.728;23.256;2022-07-23T03:51:46;9.98;;;6.38;;
57800;SDS011;43627;42.728;23.256;2022-07-23T03:54:13;17.05;;;7.00;;
57800;SDS011;43627;42.728;23.256;2022-07-23T03:56:40;14.60;;;6.60;;
57800;SDS011;43627;42.728;23.256;2022-07-23T03:59:07;13.50;;;6.28;;
57800;SDS011;43627;42.728;23.256;2022-07-23T04:01:33;13.13;;;6.25;;
57800;SDS011;43627;42.728;23.256;2022-07-23T04:04:01;10.60;;;6.57;;
57800;SDS011;43627;42.728;23.256;2022-07-23T04:06:28;11.38;;;6.25;;
57800;SDS011;43627;42.728;23.256;2022-07-23T04:08:54;16.27;;;6.88;;
57800;SDS011;43627;42.728;23.256;2022-07-23T04:11:21;11.13;;;6.10;;
57800;SDS011;43627;42.728;23.256;2022-07-23T04:13:48;16.00;;;6.18;;
57800;SDS011;43627;42.728;23.256;2022-07-23T04:16:15;9.32;;;6.88;;
57800;SDS011;43627;42.728;23.256;2022-07-23T04:18:42;11.35;;;6.22;;
57800;SDS011;43627;42.728;23.256;2022-07-23T04:21:08;13.90;;;6.25;;
57800;SDS011;43627;42.728;23.256;2022-07-23T04:23:35;10.18;;;7.47;;
57800;SDS011;43627;42.728;23.256;2022-07-23T04:26:02;10.27;;;6.35;;
57800;SDS011;43627;42.728;23.256;2022-07-23T04:28:28;11.18;;;6.45;;
57800;SDS011;43627;42.728;23.256;2022-07-23T04:30:56;12.48;;;6.75;;
57800;SDS011;43627;42.728;23.256;2022-07-23T04:33:24;11.07;;;5.88;;
57800;SDS011;43627;42.728;23.256;2022-07-23T04:35:50;13.38;;;6.63;;
57800;SDS011;43627;42.728;23.256;2022-07-23T04:38:18;11.52;;;6.40;;
57800;SDS011;43627;42.728;23.256;2022-07-23T04:40:45;11.30;;;6.00;;
57800;SDS011;43627;42.728;23.256;2022-07-23T04:43:11;10.07;;;6.10;;
57800;SDS011;43627;42.728;23.256;2022-07-23T04:45:38;10.70;;;5.88;;
57800;SDS011;43627;42.728;23.256;2022-07-23T04:48:05;14.55;;;6.93;;
57800;SDS011;43627;42.728;23.256;2022-07-23T04:50:32;14.88;;;7.50;;
57800;SDS011;43627;42.728;23.256;2022-07-23T04:52:58;9.75;;;6.07;;
57800;SDS011;43627;42.728;23.256;2022-07-23T04:55:25;14.70;;;7.55;;
57800;SDS011;43627;42.728;23.256;2022-07-23T04:57:52;8.90;;;5.82;;
57800;SDS011;43627;42.728;23.256;2022-07-23T05:00:18;12.95;;;6.05;;
57800;SDS011;43627;42.728;23.256;2022-07-23T05:02:45;13.07;;;6.82;;
57800;SDS011;43627;42.728;23.256;2022-07-23T05:05:12;13.57;;;6.85;;
57800;SDS011;43627;42.728;23.256;2022-07-23T05:07:39;15.50;;;6.15;;
57800;SDS011;43627;42.728;23.256;2022-07-23T05:10:05;10.70;;;6.75;;
57800;SDS011;43627;42.728;23.256;2022-07-23T05:12:32;9.20;;;6.72;;
57800;SDS011;43627;42.728;23.256;2022-07-23T05:14:59;15.02;;;7.20;;
57800;SDS011;43627;42.728;23.256;2022-07-23T05:17:25;11.25;;;7.05;;
57800;SDS011;43627;42.728;23.256;2022-07-23T05:19:52;12.85;;;6.57;;
57800;SDS011;43627;42.728;23.256;2022-07-23T05:22:25;9.80;;;6.40;;
57800;SDS011;43627;42.728;23.256;2022-07-23T05:24:52;15.25;;;8.52;;
57800;SDS011;43627;42.728;23.256;2022-07-23T05:27:19;12.00;;;8.10;;
57800;SDS011;43627;42.728;23.256;2022-07-23T05:29:45;14.68;;;7.03;;
57800;SDS011;43627;42.728;23.256;2022-07-23T05:32:12;13.63;;;6.63;;
57800;SDS011;43627;42.728;23.256;2022-07-23T05:34:39;15.75;;;6.05;;
57800;SDS011;43627;42.728;23.256;2022-07-23T05:37:05;16.35;;;8.00;;
57800;SDS011;43627;42.728;23.256;2022-07-23T05:39:32;20.75;;;12.75;;
57800;SDS011;43627;42.728;23.256;2022-07-23T05:41:59;22.60;;;12.82;;
57800;SDS011;43627;42.728;23.256;2022-07-23T05:44:25;18.35;;;12.75;;
57800;SDS011;43627;42.728;23.256;2022-07-23T05:46:59;17.58;;;8.40;;
57800;SDS011;43627;42.728;23.256;2022-07-23T05:49:26;15.02;;;7.53;;
57800;SDS011;43627;42.728;23.256;2022-07-23T05:51:53;17.55;;;7.35;;
57800;SDS011;43627;42.728;23.256;2022-07-23T05:54:20;11.77;;;7.00;;
57800;SDS011;43627;42.728;23.256;2022-07-23T05:56:46;13.68;;;7.18;;
57800;SDS011;43627;42.728;23.256;2022-07-23T05:59:13;12.88;;;6.47;;
57800;SDS011;43627;42.728;23.256;2022-07-23T06:01:41;19.25;;;6.85;;
57800;SDS011;43627;42.728;23.256;2022-07-23T06:04:08;18.00;;;7.13;;
57800;SDS011;43627;42.728;23.256;2022-07-23T06:06:35;17.58;;;7.97;;
57800;SDS011;43627;42.728;23.256;2022-07-23T06:09:02;13.80;;;8.38;;
57800;SDS011;43627;42.728;23.256;2022-07-23T06:11:30;9.15;;;7.35;;
57800;SDS011;43627;42.728;23.256;2022-07-23T06:13:56;10.77;;;7.63;;
57800;SDS011;43627;42.728;23.256;2022-07-23T06:16:23;15.05;;;7.53;;
57800;SDS011;43627;42.728;23.256;2022-07-23T06:18:50;11.05;;;7.35;;
57800;SDS011;43627;42.728;23.256;2022-07-23T06:21:17;17.80;;;10.32;;
57800;SDS011;43627;42.728;23.256;2022-07-23T06:24:03;20.05;;;9.23;;
57800;SDS011;43627;42.728;23.256;2022-07-23T06:26:30;13.35;;;7.03;;
57800;SDS011;43627;42.728;23.256;2022-07-23T06:28:57;18.60;;;7.25;;
57800;SDS011;43627;42.728;23.256;2022-07-23T06:31:24;15.93;;;7.65;;
57800;SDS011;43627;42.728;23.256;2022-07-23T06:33:51;18.60;;;8.02;;
57800;SDS011;43627;42.728;23.256;2022-07-23T06:36:17;21.05;;;7.57;;
57800;SDS011;43627;42.728;23.256;2022-07-23T06:38:45;12.18;;;7.55;;
57800;SDS011;43627;42.728;23.256;2022-07-23T06:41:14;14.60;;;6.97;;
57800;SDS011;43627;42.728;23.256;2022-07-23T06:43:40;16.33;;;7.10;;
57800;SDS011;43627;42.728;23.256;2022-07-23T06:46:07;14.20;;;7.18;;
57800;SDS011;43627;42.728;23.256;2022-07-23T06:48:34;18.05;;;6.78;;
57800;SDS011;43627;42.728;23.256;2022-07-23T06:51:02;13.75;;;7.60;;
57800;SDS011;43627;42.728;23.256;2022-07-23T06:53:29;11.20;;;6.72;;
57800;SDS011;43627;42.728;23.256;2022-07-23T06:55:56;15.25;;;7.05;;
57800;SDS011;43627;42.728;23.256;2022-07-23T06:58:22;18.60;;;8.25;;
57800;SDS011;43627;42.728;23.256;2022-07-23T07:00:49;10.35;;;6.65;;
57800;SDS011;43627;42.728;23.256;2022-07-23T07:03:16;15.57;;;7.88;;
57800;SDS011;43627;42.728;23.256;2022-07-23T07:05:44;16.52;;;7.60;;
57800;SDS011;43627;42.728;23.256;2022-07-23T07:08:11;17.42;;;7.90;;
57800;SDS011;43627;42.728;23.256;2022-07-23T07:10:37;15.57;;;7.03;;
57800;SDS011;43627;42.728;23.256;2022-07-23T07:13:04;10.90;;;6.60;;
57800;SDS011;43627;42.728;23.256;2022-07-23T07:15:31;21.20;;;9.07;;
57800;SDS011;43627;42.728;23.256;2022-07-23T07:17:57;12.40;;;7.05;;
57800;SDS011;43627;42.728;23.256;2022-07-23T07:20:24;12.20;;;7.47;;
57800;SDS011;43627;42.728;23.256;2022-07-23T07:22:51;16.33;;;7.68;;
57800;SDS011;43627;42.728;23.256;2022-07-23T07:25:17;15.48;;;7.25;;
57800;SDS011;43627;42.728;23.256;2022-07-23T07:27:45;19.88;;;7.88;;
57800;SDS011;43627;42.728;23.256;2022-07-23T07:30:12;23.10;;;7.40;;
57800;SDS011;43627;42.728;23.256;2022-07-23T07:32:40;14.20;;;7.00;;
57800;SDS011;43627;42.728;23.256;2022-07-23T07:35:23;14.63;;;6.97;;
57800;SDS011;43627;42.728;23.256;2022-07-23T07:37:50;15.57;;;8.05;;
57800;SDS011;43627;42.728;23.256;2022-07-23T07:40:17;17.88;;;7.35;;
57800;SDS011;43627;42.728;23.256;2022-07-23T07:42:45;12.57;;;7.25;;
57800;SDS011;43627;42.728;23.256;2022-07-23T07:45:19;13.73;;;7.03;;
57800;SDS011;43627;42.728;23.256;2022-07-23T07:47:46;15.70;;;7.10;;
57800;SDS011;43627;42.728;23.256;2022-07-23T07:50:13;13.15;;;6.43;;
57800;SDS011;43627;42.728;23.256;2022-07-23T07:52:40;11.30;;;6.47;;
57800;SDS011;43627;42.728;23.256;2022-07-23T07:55:08;9.48;;;6.47;;
57800;SDS011;43627;42.728;23.256;2022-07-23T07:57:36;15.65;;;6.80;;
57800;SDS011;43627;42.728;23.256;2022-07-23T08:00:03;9.48;;;6.03;;
57800;SDS011;43627;42.728;23.256;2022-07-23T08:02:46;23.20;;;7.60;;
57800;SDS011;43627;42.728;23.256;2022-07-23T08:05:18;13.32;;;6.32;;
57800;SDS011;43627;42.728;23.256;2022-07-23T08:07:52;16.08;;;7.22;;
57800;SDS011;43627;42.728;23.256;2022-07-23T08:10:19;11.98;;;5.97;;
57800;SDS011;43627;42.728;23.256;2022-07-23T08:12:47;13.80;;;6.80;;
57800;SDS011;43627;42.728;23.256;2022-07-23T08:15:18;15.73;;;7.03;;
57800;SDS011;43627;42.728;23.256;2022-07-23T08:17:46;16.33;;;7.22;;
57800;SDS011;43627;42.728;23.256;2022-07-23T08:20:14;14.68;;;7.85;;
57800;SDS011;43627;42.728;23.256;2022-07-23T08:22:43;12.80;;;5.93;;
57800;SDS011;43627;42.728;23.256;2022-07-23T08:25:26;17.73;;;6.90;;
57800;SDS011;43627;42.728;23.256;2022-07-23T08:27:57;11.85;;;6.15;;
57800;SDS011;43627;42.728;23.256;2022-07-23T08:30:25;12.05;;;5.82;;
57800;SDS011;43627;42.728;23.256;2022-07-23T08:32:56;13.40;;;6.60;;
57800;SDS011;43627;42.728;23.256;2022-07-23T08:35:29;16.88;;;6.18;;
57800;SDS011;43627;42.728;23.256;2022-07-23T08:37:57;12.70;;;6.45;;
57800;SDS011;43627;42.728;23.256;2022-07-23T08:40:26;18.63;;;6.45;;
57800;SDS011;43627;42.728;23.256;2022-07-23T08:42:54;9.85;;;6.32;;
57800;SDS011;43627;42.728;23.256;2022-07-23T08:45:22;15.80;;;6.18;;
57800;SDS011;43627;42.728;23.256;2022-07-23T08:47:51;14.05;;;6.70;;
57800;SDS011;43627;42.728;23.256;2022-07-23T08:50:20;15.75;;;6.88;;
57800;SDS011;43627;42.728;23.256;2022-07-23T08:52:49;13.95;;;6.50;;
57800;SDS011;43627;42.728;23.256;2022-07-23T08:55:18;12.57;;;6.60;;
57800;SDS011;43627;42.728;23.256;2022-07-23T08:57:49;12.60;;;6.88;;
57800;SDS011;43627;42.728;23.256;2022-07-23T09:00:18;14.57;;;6.78;;
57800;SDS011;43627;42.728;23.256;2022-07-23T09:02:46;13.98;;;6.88;;
57800;SDS011;43627;42.728;23.256;2022-07-23T09:05:14;17.58;;;7.03;;
57800;SDS011;43627;42.728;23.256;2022-07-23T09:10:50;14.27;;;7.90;;
57800;SDS011;43627;42.728;23.256;2022-07-23T09:13:26;17.65;;;7.10;;
57800;SDS011;43627;42.728;23.256;2022-07-23T09:15:54;15.15;;;9.25;;
57800;SDS011;43627;42.728;23.256;2022-07-23T09:18:29;12.40;;;6.13;;
57800;SDS011;43627;42.728;23.256;2022-07-23T09:21:09;19.25;;;6.72;;
57800;SDS011;43627;42.728;23.256;2022-07-23T09:23:44;13.30;;;6.28;;
57800;SDS011;43627;42.728;23.256;2022-07-23T09:31:24;15.45;;;5.45;;
57800;SDS011;43627;42.728;23.256;2022-07-23T09:34:06;13.50;;;5.72;;
57800;SDS011;43627;42.728;23.256;2022-07-23T09:36:34;15.35;;;5.88;;
57800;SDS011;43627;42.728;23.256;2022-07-23T09:39:01;13.60;;;5.85;;
57800;SDS011;43627;42.728;23.256;2022-07-23T09:41:36;12.00;;;5.65;;
57800;SDS011;43627;42.728;23.256;2022-07-23T09:44:23;11.00;;;5.78;;
57800;SDS011;43627;42.728;23.256;2022-07-23T09:46:57;9.25;;;5.50;;
57800;SDS011;43627;42.728;23.256;2022-07-23T09:49:25;11.63;;;5.07;;
57800;SDS011;43627;42.728;23.256;2022-07-23T09:51:53;12.70;;;6.07;;
57800;SDS011;43627;42.728;23.256;2022-07-23T09:54:38;11.50;;;5.80;;
57800;SDS011;43627;42.728;23.256;2022-07-23T09:57:07;12.93;;;5.95;;
57800;SDS011;43627;42.728;23.256;2022-07-23T09:59:40;13.45;;;6.00;;
57800;SDS011;43627;42.728;23.256;2022-07-23T10:02:09;13.73;;;6.47;;
57800;SDS011;43627;42.728;23.256;2022-07-23T10:04:39;14.27;;;5.55;;
57800;SDS011;43627;42.728;23.256;2022-07-23T10:07:07;10.48;;;5.22;;
57800;SDS011;43627;42.728;23.256;2022-07-23T10:09:36;12.00;;;4.63;;
57800;SDS011;43627;42.728;23.256;2022-07-23T10:12:09;12.67;;;5.50;;
57800;SDS011;43627;42.728;23.256;2022-07-23T10:14:49;10.63;;;4.95;;
57800;SDS011;43627;42.728;23.256;2022-07-23T10:17:16;10.30;;;5.05;;
57800;SDS011;43627;42.728;23.256;2022-07-23T10:19:44;9.13;;;5.20;;
57800;SDS011;43627;42.728;23.256;2022-07-23T10:22:15;11.05;;;4.97;;
57800;SDS011;43627;42.728;23.256;2022-07-23T10:27:54;11.50;;;5.60;;
57800;SDS011;43627;42.728;23.256;2022-07-23T10:33:15;14.25;;;5.22;;
57800;SDS011;43627;42.728;23.256;2022-07-23T10:35:49;19.08;;;5.30;;
57800;SDS011;43627;42.728;23.256;2022-07-23T10:38:25;10.75;;;4.82;;
57800;SDS011;43627;42.728;23.256;2022-07-23T10:41:01;13.52;;;5.00;;
57800;SDS011;43627;42.728;23.256;2022-07-23T10:43:29;10.55;;;5.35;;
57800;SDS011;43627;42.728;23.256;2022-07-23T10:57:13;12.18;;;4.55;;
57800;SDS011;43627;42.728;23.256;2022-07-23T11:02:26;9.23;;;4.90;;
57800;SDS011;43627;42.728;23.256;2022-07-23T11:04:58;17.55;;;3.97;;
57800;SDS011;43627;42.728;23.256;2022-07-23T11:07:27;20.40;;;4.63;;
57800;SDS011;43627;42.728;23.256;2022-07-23T11:09:54;17.73;;;5.85;;
57800;SDS011;43627;42.728;23.256;2022-07-23T11:17:24;16.08;;;5.22;;
57800;SDS011;43627;42.728;23.256;2022-07-23T11:22:39;14.85;;;4.75;;
57800;SDS011;43627;42.728;23.256;2022-07-23T11:25:14;12.32;;;4.80;;
57800;SDS011;43627;42.728;23.256;2022-07-23T11:28:16;15.55;;;5.40;;
57800;SDS011;43627;42.728;23.256;2022-07-23T11:30:47;12.05;;;4.88;;
57800;SDS011;43627;42.728;23.256;2022-07-23T11:35:44;16.88;;;4.90;;
57800;SDS011;43627;42.728;23.256;2022-07-23T11:38:19;20.17;;;6.03;;
57800;SDS011;43627;42.728;23.256;2022-07-23T11:40:51;12.38;;;5.40;;
57800;SDS011;43627;42.728;23.256;2022-07-23T11:43:20;17.73;;;4.85;;
57800;SDS011;43627;42.728;23.256;2022-07-23T11:45:49;12.38;;;5.03;;
57800;SDS011;43627;42.728;23.256;2022-07-23T11:48:19;17.20;;;4.73;;
57800;SDS011;43627;42.728;23.256;2022-07-23T11:50:46;13.05;;;4.80;;
57800;SDS011;43627;42.728;23.256;2022-07-23T11:53:13;19.38;;;4.88;;
57800;SDS011;43627;42.728;23.256;2022-07-23T11:55:47;20.92;;;4.93;;
57800;SDS011;43627;42.728;23.256;2022-07-23T11:58:14;14.60;;;4.65;;
57800;SDS011;43627;42.728;23.256;2022-07-23T12:00:41;16.30;;;4.53;;
57800;SDS011;43627;42.728;23.256;2022-07-23T12:03:08;16.10;;;5.20;;
57800;SDS011;43627;42.728;23.256;2022-07-23T12:05:35;20.05;;;4.95;;
57800;SDS011;43627;42.728;23.256;2022-07-23T12:08:03;11.90;;;4.32;;
57800;SDS011;43627;42.728;23.256;2022-07-23T12:10:36;17.80;;;5.15;;
57800;SDS011;43627;42.728;23.256;2022-07-23T12:13:17;14.55;;;5.40;;
57800;SDS011;43627;42.728;23.256;2022-07-23T12:15:47;15.95;;;5.55;;
57800;SDS011;43627;42.728;23.256;2022-07-23T12:18:17;15.93;;;5.53;;
57800;SDS011;43627;42.728;23.256;2022-07-23T12:20:50;24.98;;;5.78;;
57800;SDS011;43627;42.728;23.256;2022-07-23T12:23:20;16.38;;;5.80;;
57800;SDS011;43627;42.728;23.256;2022-07-23T12:25:49;15.95;;;5.47;;
57800;SDS011;43627;42.728;23.256;2022-07-23T12:28:18;12.77;;;5.30;;
57800;SDS011;43627;42.728;23.256;2022-07-23T12:30:55;16.73;;;6.13;;
57800;SDS011;43627;42.728;23.256;2022-07-23T12:33:25;16.38;;;5.53;;
57800;SDS011;43627;42.728;23.256;2022-07-23T12:35:57;19.13;;;5.90;;
57800;SDS011;43627;42.728;23.256;2022-07-23T12:38:25;15.77;;;5.53;;
57800;SDS011;43627;42.728;23.256;2022-07-23T12:40:55;21.45;;;6.00;;
57800;SDS011;43627;42.728;23.256;2022-07-23T12:43:32;14.10;;;4.93;;
57800;SDS011;43627;42.728;23.256;2022-07-23T12:46:06;11.52;;;5.50;;
57800;SDS011;43627;42.728;23.256;2022-07-23T12:58:44;16.27;;;4.63;;
57800;SDS011;43627;42.728;23.256;2022-07-23T13:04:11;15.68;;;4.43;;
57800;SDS011;43627;42.728;23.256;2022-07-23T13:06:55;11.63;;;4.10;;
57800;SDS011;43627;42.728;23.256;2022-07-23T13:09:26;11.75;;;4.22;;
57800;SDS011;43627;42.728;23.256;2022-07-23T13:12:01;11.35;;;3.92;;
57800;SDS011;43627;42.728;23.256;2022-07-23T13:14:31;13.90;;;4.70;;
57800;SDS011;43627;42.728;23.256;2022-07-23T13:16:58;18.48;;;4.40;;
57800;SDS011;43627;42.728;23.256;2022-07-23T13:19:25;10.05;;;4.18;;
57800;SDS011;43627;42.728;23.256;2022-07-23T13:21:53;14.13;;;4.05;;
57800;SDS011;43627;42.728;23.256;2022-07-23T13:24:20;11.43;;;4.13;;
57800;SDS011;43627;42.728;23.256;2022-07-23T13:26:47;19.40;;;4.22;;
57800;SDS011;43627;42.728;23.256;2022-07-23T13:29:17;11.98;;;3.90;;
57800;SDS011;43627;42.728;23.256;2022-07-23T13:31:45;17.35;;;4.72;;
57800;SDS011;43627;42.728;23.256;2022-07-23T13:34:14;12.75;;;3.67;;
57800;SDS011;43627;42.728;23.256;2022-07-23T13:36:40;12.52;;;3.60;;
57800;SDS011;43627;42.728;23.256;2022-07-23T13:39:10;20.00;;;4.57;;
57800;SDS011;43627;42.728;23.256;2022-07-23T13:41:37;12.05;;;4.07;;
57800;SDS011;43627;42.728;23.256;2022-07-23T13:44:05;11.75;;;4.10;;
57800;SDS011;43627;42.728;23.256;2022-07-23T13:46:32;12.82;;;4.15;;
57800;SDS011;43627;42.728;23.256;2022-07-23T13:49:00;13.13;;;4.38;;
57800;SDS011;43627;42.728;23.256;2022-07-23T13:51:28;9.40;;;3.72;;
57800;SDS011;43627;42.728;23.256;2022-07-23T13:53:54;13.52;;;3.92;;
57800;SDS011;43627;42.728;23.256;2022-07-23T13:56:23;15.10;;;3.90;;
57800;SDS011;43627;42.728;23.256;2022-07-23T13:58:49;10.38;;;3.95;;
57800;SDS011;43627;42.728;23.256;2022-07-23T14:01:16;13.00;;;4.00;;
57800;SDS011;43627;42.728;23.256;2022-07-23T14:03:43;9.45;;;4.28;;
57800;SDS011;43627;42.728;23.256;2022-07-23T14:06:11;14.05;;;5.00;;
57800;SDS011;43627;42.728;23.256;2022-07-23T14:08:42;15.00;;;4.40;;
57800;SDS011;43627;42.728;23.256;2022-07-23T14:11:11;13.50;;;4.57;;
57800;SDS011;43627;42.728;23.256;2022-07-23T14:13:39;12.38;;;3.80;;
57800;SDS011;43627;42.728;23.256;2022-07-23T14:16:06;9.82;;;4.40;;
57800;SDS011;43627;42.728;23.256;2022-07-23T14:18:33;8.80;;;3.70;;
57800;SDS011;43627;42.728;23.256;2022-07-23T14:21:01;11.63;;;3.72;;
57800;SDS011;43627;42.728;23.256;2022-07-23T14:23:28;14.88;;;4.70;;
57800;SDS011;43627;42.728;23.256;2022-07-23T14:25:56;14.38;;;4.65;;
57800;SDS011;43627;42.728;23.256;2022-07-23T14:28:23;12.75;;;3.83;;
57800;SDS011;43627;42.728;23.256;2022-07-23T14:30:50;11.27;;;4.18;;
57800;SDS011;43627;42.728;23.256;2022-07-23T14:33:19;7.60;;;3.92;;
57800;SDS011;43627;42.728;23.256;2022-07-23T14:35:47;10.85;;;4.45;;
57800;SDS011;43627;42.728;23.256;2022-07-23T14:38:13;15.57;;;4.60;;
57800;SDS011;43627;42.728;23.256;2022-07-23T14:40:40;14.52;;;4.28;;
57800;SDS011;43627;42.728;23.256;2022-07-23T14:43:08;13.35;;;4.05;;
57800;SDS011;43627;42.728;23.256;2022-07-23T14:45:55;10.60;;;4.00;;
57800;SDS011;43627;42.728;23.256;2022-07-23T14:48:21;9.77;;;4.28;;
57800;SDS011;43627;42.728;23.256;2022-07-23T14:50:48;15.02;;;4.30;;
57800;SDS011;43627;42.728;23.256;2022-07-23T14:53:15;16.52;;;4.78;;
57800;SDS011;43627;42.728;23.256;2022-07-23T14:55:48;10.90;;;4.10;;
57800;SDS011;43627;42.728;23.256;2022-07-23T14:58:14;15.40;;;5.60;;
57800;SDS011;43627;42.728;23.256;2022-07-23T15:00:41;10.50;;;4.10;;
57800;SDS011;43627;42.728;23.256;2022-07-23T15:03:10;17.52;;;5.25;;
57800;SDS011;43627;42.728;23.256;2022-07-23T15:05:38;13.23;;;4.35;;
57800;SDS011;43627;42.728;23.256;2022-07-23T15:08:05;9.80;;;4.05;;
57800;SDS011;43627;42.728;23.256;2022-07-23T15:10:34;11.25;;;3.80;;
57800;SDS011;43627;42.728;23.256;2022-07-23T15:13:03;15.98;;;4.78;;
57800;SDS011;43627;42.728;23.256;2022-07-23T15:15:30;10.43;;;4.82;;
57800;SDS011;43627;42.728;23.256;2022-07-23T15:17:57;10.98;;;3.97;;
57800;SDS011;43627;42.728;23.256;2022-07-23T15:20:24;12.50;;;5.03;;
57800;SDS011;43627;42.728;23.256;2022-07-23T15:23:06;11.45;;;4.30;;